sensor_id;sensor_type;location;lat;lon;timestamp;P1;durP1;ratioP1;P2;durP2;ratioP2
2061;SDS011;11070;51.336;12.340;2023-07-02T00:01:48;3.30;;;2.90;;
2061;SDS011;11070;51.336;12.340;2023-07-02T00:04:15;3.42;;;3.22;;
2061;SDS011;11070;51.336;12.340;2023-07-02T00:06:44;3.30;;;3.10;;
2061;SDS011;11070;51.336;12.340;2023-07-02T00:09:11;2.97;;;2.77;;
2061;SDS011;11070;51.336;12.340;2023-07-02T00:11:38;3.40;;;3.13;;
2061;SDS011;11070;51.336;12.340;2023-07-02T00:14:04;3.33;;;3.13;;
2061;SDS011;11070;51.336;12.340;2023-07-02T00:16:31;3.25;;;3.05;;
2061;SDS011;11070;51.336;12.340;2023-07-02T00:18:59;3.50;;;3.20;;
2061;SDS011;11070;51.336;12.340;2023-07-02T00:21:25;3.45;;;3.25;;
2061;SDS011;11070;51.336;12.340;2023-07-02T00:23:55;3.53;;;3.30;;
2061;SDS011;11070;51.336;12.340;2023-07-02T00:26:25;3.50;;;3.30;;
2061;SDS011;11070;51.336;12.340;2023-07-02T00:28:54;3.10;;;2.90;;
2061;SDS011;11070;51.336;12.340;2023-07-02T00:31:20;3.60;;;3.30;;
2061;SDS011;11070;51.336;12.340;2023-07-02T00:33:46;5.95;;;2.90;;
2061;SDS011;11070;51.336;12.340;2023-07-02T00:36:13;3.05;;;2.85;;
2061;SDS011;11070;51.336;12.340;2023-07-02T00:38:42;3.30;;;3.13;;
2061;SDS011;11070;51.336;12.340;2023-07-02T00:41:12;3.17;;;2.97;;
2061;SDS011;11070;51.336;12.340;2023-07-02T00:43:38;3.30;;;3.10;;
2061;SDS011;11070;51.336;12.340;2023-07-02T00:46:13;3.08;;;2.92;;
2061;SDS011;11070;51.336;12.340;2023-07-02T00:48:45;3.10;;;2.90;;
2061;SDS011;11070;51.336;12.340;2023-07-02T00:51:16;3.30;;;3.10;;
2061;SDS011;11070;51.336;12.340;2023-07-02T00:53:46;3.70;;;3.00;;
2061;SDS011;11070;51.336;12.340;2023-07-02T00:56:13;3.85;;;2.90;;
2061;SDS011;11070;51.336;12.340;2023-07-02T00:58:43;3.45;;;3.15;;
2061;SDS011;11070;51.336;12.340;2023-07-02T01:01:19;3.70;;;3.50;;
2061;SDS011;11070;51.336;12.340;2023-07-02T01:03:49;3.22;;;3.03;;
2061;SDS011;11070;51.336;12.340;2023-07-02T01:06:26;3.28;;;2.97;;
2061;SDS011;11070;51.336;12.340;2023-07-02T01:08:55;3.47;;;3.28;;
2061;SDS011;11070;51.336;12.340;2023-07-02T01:11:40;4.07;;;3.00;;
2061;SDS011;11070;51.336;12.340;2023-07-02T01:14:25;3.30;;;3.10;;
2061;SDS011;11070;51.336;12.340;2023-07-02T01:16:56;3.83;;;3.10;;
2061;SDS011;11070;51.336;12.340;2023-07-02T01:22:06;3.47;;;2.90;;
2061;SDS011;11070;51.336;12.340;2023-07-02T01:24:32;4.13;;;3.47;;
2061;SDS011;11070;51.336;12.340;2023-07-02T01:26:58;4.50;;;3.05;;
2061;SDS011;11070;51.336;12.340;2023-07-02T01:29:28;3.25;;;3.05;;
2061;SDS011;11070;51.336;12.340;2023-07-02T01:31:54;3.50;;;3.30;;
2061;SDS011;11070;51.336;12.340;2023-07-02T01:34:20;3.37;;;3.17;;
2061;SDS011;11070;51.336;12.340;2023-07-02T01:36:46;4.57;;;3.23;;
2061;SDS011;11070;51.336;12.340;2023-07-02T01:39:12;3.80;;;3.50;;
2061;SDS011;11070;51.336;12.340;2023-07-02T01:41:53;4.10;;;3.20;;
2061;SDS011;11070;51.336;12.340;2023-07-02T01:44:21;4.03;;;3.08;;
2061;SDS011;11070;51.336;12.340;2023-07-02T01:46:47;4.00;;;3.70;;
2061;SDS011;11070;51.336;12.340;2023-07-02T01:49:17;4.10;;;3.80;;
2061;SDS011;11070;51.336;12.340;2023-07-02T01:51:50;5.07;;;3.97;;
2061;SDS011;11070;51.336;12.340;2023-07-02T01:54:17;5.05;;;4.00;;
2061;SDS011;11070;51.336;12.340;2023-07-02T01:56:43;4.35;;;4.05;;
2061;SDS011;11070;51.336;12.340;2023-07-02T01:59:09;4.53;;;4.20;;
2061;SDS011;11070;51.336;12.340;2023-07-02T02:01:34;4.60;;;4.20;;
2061;SDS011;11070;51.336;12.340;2023-07-02T02:04:00;4.03;;;3.70;;
2061;SDS011;11070;51.336;12.340;2023-07-02T02:06:25;4.73;;;4.33;;
2061;SDS011;11070;51.336;12.340;2023-07-02T02:08:51;4.67;;;4.17;;
2061;SDS011;11070;51.336;12.340;2023-07-02T02:11:17;4.10;;;3.90;;
2061;SDS011;11070;51.336;12.340;2023-07-02T02:13:42;4.67;;;4.27;;
2061;SDS011;11070;51.336;12.340;2023-07-02T02:16:08;3.97;;;3.67;;
2061;SDS011;11070;51.336;12.340;2023-07-02T02:18:34;5.23;;;4.00;;
2061;SDS011;11070;51.336;12.340;2023-07-02T02:20:59;4.17;;;3.80;;
2061;SDS011;11070;51.336;12.340;2023-07-02T02:23:25;4.07;;;3.67;;
2061;SDS011;11070;51.336;12.340;2023-07-02T02:25:51;4.20;;;3.90;;
2061;SDS011;11070;51.336;12.340;2023-07-02T02:28:17;4.20;;;3.53;;
2061;SDS011;11070;51.336;12.340;2023-07-02T02:30:42;4.20;;;4.00;;
2061;SDS011;11070;51.336;12.340;2023-07-02T02:33:08;3.90;;;3.60;;
2061;SDS011;11070;51.336;12.340;2023-07-02T02:35:34;4.60;;;4.20;;
2061;SDS011;11070;51.336;12.340;2023-07-02T02:38:03;4.60;;;4.20;;
2061;SDS011;11070;51.336;12.340;2023-07-02T02:40:29;4.53;;;4.22;;
2061;SDS011;11070;51.336;12.340;2023-07-02T02:42:55;4.20;;;4.00;;
2061;SDS011;11070;51.336;12.340;2023-07-02T02:45:21;3.90;;;3.70;;
2061;SDS011;11070;51.336;12.340;2023-07-02T02:47:47;4.63;;;4.33;;
2061;SDS011;11070;51.336;12.340;2023-07-02T02:50:12;4.37;;;4.00;;
2061;SDS011;11070;51.336;12.340;2023-07-02T02:52:39;4.47;;;4.20;;
2061;SDS011;11070;51.336;12.340;2023-07-02T02:55:05;4.37;;;4.13;;
2061;SDS011;11070;51.336;12.340;2023-07-02T02:57:32;4.35;;;4.05;;
2061;SDS011;11070;51.336;12.340;2023-07-02T02:59:58;4.80;;;4.40;;
2061;SDS011;11070;51.336;12.340;2023-07-02T03:02:23;4.03;;;3.73;;
2061;SDS011;11070;51.336;12.340;2023-07-02T03:04:49;4.60;;;4.30;;
2061;SDS011;11070;51.336;12.340;2023-07-02T03:07:15;5.20;;;4.20;;
2061;SDS011;11070;51.336;12.340;2023-07-02T03:09:41;4.50;;;4.20;;
2061;SDS011;11070;51.336;12.340;2023-07-02T03:12:07;4.27;;;3.93;;
2061;SDS011;11070;51.336;12.340;2023-07-02T03:14:33;4.57;;;4.17;;
2061;SDS011;11070;51.336;12.340;2023-07-02T03:16:59;4.80;;;4.40;;
2061;SDS011;11070;51.336;12.340;2023-07-02T03:19:25;4.93;;;4.53;;
2061;SDS011;11070;51.336;12.340;2023-07-02T03:21:52;5.00;;;4.70;;
2061;SDS011;11070;51.336;12.340;2023-07-02T03:24:17;4.70;;;4.40;;
2061;SDS011;11070;51.336;12.340;2023-07-02T03:26:43;5.50;;;5.10;;
2061;SDS011;11070;51.336;12.340;2023-07-02T03:29:09;5.60;;;5.20;;
2061;SDS011;11070;51.336;12.340;2023-07-02T03:31:36;5.10;;;4.70;;
2061;SDS011;11070;51.336;12.340;2023-07-02T03:34:03;5.03;;;4.63;;
2061;SDS011;11070;51.336;12.340;2023-07-02T03:36:30;5.40;;;4.60;;
2061;SDS011;11070;51.336;12.340;2023-07-02T03:38:56;5.03;;;4.73;;
2061;SDS011;11070;51.336;12.340;2023-07-02T03:41:22;4.97;;;4.43;;
2061;SDS011;11070;51.336;12.340;2023-07-02T03:43:48;4.77;;;4.37;;
2061;SDS011;11070;51.336;12.340;2023-07-02T03:46:13;4.60;;;4.20;;
2061;SDS011;11070;51.336;12.340;2023-07-02T03:48:40;5.27;;;4.87;;
2061;SDS011;11070;51.336;12.340;2023-07-02T03:51:06;11.93;;;4.70;;
2061;SDS011;11070;51.336;12.340;2023-07-02T03:53:32;5.50;;;5.00;;
2061;SDS011;11070;51.336;12.340;2023-07-02T03:55:58;6.10;;;5.60;;
2061;SDS011;11070;51.336;12.340;2023-07-02T03:58:23;4.60;;;4.30;;
2061;SDS011;11070;51.336;12.340;2023-07-02T04:00:49;5.13;;;4.73;;
2061;SDS011;11070;51.336;12.340;2023-07-02T04:03:18;4.90;;;4.50;;
2061;SDS011;11070;51.336;12.340;2023-07-02T04:05:44;5.25;;;4.70;;
2061;SDS011;11070;51.336;12.340;2023-07-02T04:08:12;5.13;;;4.82;;
2061;SDS011;11070;51.336;12.340;2023-07-02T04:10:37;4.50;;;4.20;;
2061;SDS011;11070;51.336;12.340;2023-07-02T04:13:03;5.37;;;4.97;;
2061;SDS011;11070;51.336;12.340;2023-07-02T04:15:29;7.77;;;4.63;;
2061;SDS011;11070;51.336;12.340;2023-07-02T04:17:54;4.60;;;4.33;;
2061;SDS011;11070;51.336;12.340;2023-07-02T04:20:20;4.87;;;4.43;;
2061;SDS011;11070;51.336;12.340;2023-07-02T04:22:46;4.57;;;4.27;;
2061;SDS011;11070;51.336;12.340;2023-07-02T04:25:12;5.43;;;4.93;;
2061;SDS011;11070;51.336;12.340;2023-07-02T04:27:41;4.80;;;4.32;;
2061;SDS011;11070;51.336;12.340;2023-07-02T04:30:10;4.80;;;4.30;;
2061;SDS011;11070;51.336;12.340;2023-07-02T04:32:37;5.15;;;4.72;;
2061;SDS011;11070;51.336;12.340;2023-07-02T04:35:06;5.20;;;4.80;;
2061;SDS011;11070;51.336;12.340;2023-07-02T04:37:36;5.38;;;4.70;;
2061;SDS011;11070;51.336;12.340;2023-07-02T04:40:02;4.37;;;4.07;;
2061;SDS011;11070;51.336;12.340;2023-07-02T04:42:35;5.38;;;4.30;;
2061;SDS011;11070;51.336;12.340;2023-07-02T04:45:03;5.07;;;4.68;;
2061;SDS011;11070;51.336;12.340;2023-07-02T04:47:33;5.30;;;4.80;;
2061;SDS011;11070;51.336;12.340;2023-07-02T04:50:00;5.88;;;5.47;;
2061;SDS011;11070;51.336;12.340;2023-07-02T04:52:26;5.50;;;5.10;;
2061;SDS011;11070;51.336;12.340;2023-07-02T04:54:52;6.55;;;5.40;;
2061;SDS011;11070;51.336;12.340;2023-07-02T04:57:18;6.03;;;5.20;;
2061;SDS011;11070;51.336;12.340;2023-07-02T04:59:44;5.50;;;5.00;;
2061;SDS011;11070;51.336;12.340;2023-07-02T05:02:10;5.57;;;5.17;;
2061;SDS011;11070;51.336;12.340;2023-07-02T05:04:35;5.93;;;5.30;;
2061;SDS011;11070;51.336;12.340;2023-07-02T05:07:04;5.70;;;5.15;;
2061;SDS011;11070;51.336;12.340;2023-07-02T05:09:30;5.77;;;5.37;;
2061;SDS011;11070;51.336;12.340;2023-07-02T05:11:56;5.75;;;5.25;;
2061;SDS011;11070;51.336;12.340;2023-07-02T05:14:24;6.10;;;5.60;;
2061;SDS011;11070;51.336;12.340;2023-07-02T05:16:50;5.80;;;5.30;;
2061;SDS011;11070;51.336;12.340;2023-07-02T05:19:15;5.63;;;5.30;;
2061;SDS011;11070;51.336;12.340;2023-07-02T05:21:41;6.10;;;5.60;;
2061;SDS011;11070;51.336;12.340;2023-07-02T05:24:07;6.20;;;5.80;;
2061;SDS011;11070;51.336;12.340;2023-07-02T05:26:34;6.50;;;6.00;;
2061;SDS011;11070;51.336;12.340;2023-07-02T05:29:00;7.20;;;6.60;;
2061;SDS011;11070;51.336;12.340;2023-07-02T05:31:26;7.10;;;6.50;;
2061;SDS011;11070;51.336;12.340;2023-07-02T05:33:53;7.13;;;6.53;;
2061;SDS011;11070;51.336;12.340;2023-07-02T05:36:19;7.47;;;6.87;;
2061;SDS011;11070;51.336;12.340;2023-07-02T05:38:45;7.20;;;6.70;;
2061;SDS011;11070;51.336;12.340;2023-07-02T05:41:10;7.17;;;6.67;;
2061;SDS011;11070;51.336;12.340;2023-07-02T05:43:36;7.60;;;6.90;;
2061;SDS011;11070;51.336;12.340;2023-07-02T05:46:02;7.17;;;6.67;;
2061;SDS011;11070;51.336;12.340;2023-07-02T05:48:27;7.50;;;7.00;;
2061;SDS011;11070;51.336;12.340;2023-07-02T05:50:54;8.90;;;8.20;;
2061;SDS011;11070;51.336;12.340;2023-07-02T05:53:20;8.70;;;7.90;;
2061;SDS011;11070;51.336;12.340;2023-07-02T05:55:46;9.60;;;8.17;;
2061;SDS011;11070;51.336;12.340;2023-07-02T05:58:13;8.38;;;7.78;;
2061;SDS011;11070;51.336;12.340;2023-07-02T06:00:38;8.43;;;7.73;;
2061;SDS011;11070;51.336;12.340;2023-07-02T06:03:06;8.80;;;8.10;;
2061;SDS011;11070;51.336;12.340;2023-07-02T06:05:32;8.50;;;7.80;;
2061;SDS011;11070;51.336;12.340;2023-07-02T06:07:58;8.53;;;7.90;;
2061;SDS011;11070;51.336;12.340;2023-07-02T06:10:23;7.13;;;6.70;;
2061;SDS011;11070;51.336;12.340;2023-07-02T06:12:49;8.40;;;7.70;;
2061;SDS011;11070;51.336;12.340;2023-07-02T06:15:15;7.97;;;7.37;;
2061;SDS011;11070;51.336;12.340;2023-07-02T06:17:40;7.20;;;6.77;;
2061;SDS011;11070;51.336;12.340;2023-07-02T06:20:06;7.30;;;6.80;;
2061;SDS011;11070;51.336;12.340;2023-07-02T06:22:33;7.15;;;6.43;;
2061;SDS011;11070;51.336;12.340;2023-07-02T06:24:58;6.30;;;5.77;;
2061;SDS011;11070;51.336;12.340;2023-07-02T06:27:24;6.27;;;5.80;;
2061;SDS011;11070;51.336;12.340;2023-07-02T06:29:49;6.10;;;5.70;;
2061;SDS011;11070;51.336;12.340;2023-07-02T06:32:16;6.65;;;6.13;;
2061;SDS011;11070;51.336;12.340;2023-07-02T06:34:42;5.93;;;5.43;;
2061;SDS011;11070;51.336;12.340;2023-07-02T06:37:08;5.83;;;5.40;;
2061;SDS011;11070;51.336;12.340;2023-07-02T06:39:33;5.97;;;5.57;;
2061;SDS011;11070;51.336;12.340;2023-07-02T06:41:59;5.97;;;5.57;;
2061;SDS011;11070;51.336;12.340;2023-07-02T06:44:25;5.53;;;5.23;;
2061;SDS011;11070;51.336;12.340;2023-07-02T06:46:50;5.63;;;5.23;;
2061;SDS011;11070;51.336;12.340;2023-07-02T06:49:16;5.33;;;5.00;;
2061;SDS011;11070;51.336;12.340;2023-07-02T06:51:42;5.83;;;5.30;;
2061;SDS011;11070;51.336;12.340;2023-07-02T06:54:07;5.77;;;5.37;;
2061;SDS011;11070;51.336;12.340;2023-07-02T06:56:33;5.70;;;5.30;;
2061;SDS011;11070;51.336;12.340;2023-07-02T06:58:59;6.37;;;5.83;;
2061;SDS011;11070;51.336;12.340;2023-07-02T07:01:28;5.45;;;4.97;;
2061;SDS011;11070;51.336;12.340;2023-07-02T07:03:53;5.07;;;4.77;;
2061;SDS011;11070;51.336;12.340;2023-07-02T07:06:19;5.30;;;4.80;;
2061;SDS011;11070;51.336;12.340;2023-07-02T07:08:45;5.00;;;4.70;;
2061;SDS011;11070;51.336;12.340;2023-07-02T07:11:11;5.83;;;5.17;;
2061;SDS011;11070;51.336;12.340;2023-07-02T07:13:36;4.80;;;4.23;;
2061;SDS011;11070;51.336;12.340;2023-07-02T07:16:02;5.60;;;5.10;;
2061;SDS011;11070;51.336;12.340;2023-07-02T07:18:28;5.00;;;4.57;;
2061;SDS011;11070;51.336;12.340;2023-07-02T07:20:54;4.40;;;4.10;;
2061;SDS011;11070;51.336;12.340;2023-07-02T07:23:20;4.38;;;4.15;;
2061;SDS011;11070;51.336;12.340;2023-07-02T07:25:46;3.90;;;3.60;;
2061;SDS011;11070;51.336;12.340;2023-07-02T07:28:12;5.13;;;4.73;;
2061;SDS011;11070;51.336;12.340;2023-07-02T07:30:43;4.28;;;3.92;;
2061;SDS011;11070;51.336;12.340;2023-07-02T07:33:09;4.53;;;4.22;;
2061;SDS011;11070;51.336;12.340;2023-07-02T07:35:35;5.13;;;4.60;;
2061;SDS011;11070;51.336;12.340;2023-07-02T07:38:02;4.53;;;4.33;;
2061;SDS011;11070;51.336;12.340;2023-07-02T07:40:28;4.25;;;3.90;;
2061;SDS011;11070;51.336;12.340;2023-07-02T07:42:54;4.20;;;3.90;;
2061;SDS011;11070;51.336;12.340;2023-07-02T07:45:20;3.90;;;3.70;;
2061;SDS011;11070;51.336;12.340;2023-07-02T07:47:45;3.50;;;3.30;;
2061;SDS011;11070;51.336;12.340;2023-07-02T07:50:11;4.07;;;3.87;;
2061;SDS011;11070;51.336;12.340;2023-07-02T07:52:40;3.67;;;3.37;;
2061;SDS011;11070;51.336;12.340;2023-07-02T07:55:07;3.70;;;3.50;;
2061;SDS011;11070;51.336;12.340;2023-07-02T07:57:33;3.90;;;3.60;;
2061;SDS011;11070;51.336;12.340;2023-07-02T08:00:01;3.28;;;3.08;;
2061;SDS011;11070;51.336;12.340;2023-07-02T08:02:29;2.75;;;2.65;;
2061;SDS011;11070;51.336;12.340;2023-07-02T08:04:54;3.43;;;3.13;;
2061;SDS011;11070;51.336;12.340;2023-07-02T08:07:20;3.27;;;3.07;;
2061;SDS011;11070;51.336;12.340;2023-07-02T08:09:46;3.23;;;3.00;;
2061;SDS011;11070;51.336;12.340;2023-07-02T08:12:11;3.67;;;3.47;;
2061;SDS011;11070;51.336;12.340;2023-07-02T08:14:37;3.30;;;3.10;;
2061;SDS011;11070;51.336;12.340;2023-07-02T08:17:03;3.60;;;2.87;;
2061;SDS011;11070;51.336;12.340;2023-07-02T08:19:28;3.67;;;3.30;;
2061;SDS011;11070;51.336;12.340;2023-07-02T08:21:54;3.53;;;3.23;;
2061;SDS011;11070;51.336;12.340;2023-07-02T08:24:20;3.43;;;3.23;;
2061;SDS011;11070;51.336;12.340;2023-07-02T08:26:45;4.60;;;3.37;;
2061;SDS011;11070;51.336;12.340;2023-07-02T08:29:12;4.85;;;3.50;;
2061;SDS011;11070;51.336;12.340;2023-07-02T08:31:38;3.43;;;3.20;;
2061;SDS011;11070;51.336;12.340;2023-07-02T08:34:05;3.72;;;3.28;;
2061;SDS011;11070;51.336;12.340;2023-07-02T08:36:31;3.90;;;3.60;;
2061;SDS011;11070;51.336;12.340;2023-07-02T08:38:56;4.70;;;3.20;;
2061;SDS011;11070;51.336;12.340;2023-07-02T08:41:22;2.77;;;2.67;;
2061;SDS011;11070;51.336;12.340;2023-07-02T08:43:48;3.83;;;3.40;;
2061;SDS011;11070;51.336;12.340;2023-07-02T08:46:15;3.83;;;3.50;;
2061;SDS011;11070;51.336;12.340;2023-07-02T08:48:41;3.50;;;3.30;;
2061;SDS011;11070;51.336;12.340;2023-07-02T08:51:07;3.53;;;3.23;;
2061;SDS011;11070;51.336;12.340;2023-07-02T08:53:33;4.07;;;3.77;;
2061;SDS011;11070;51.336;12.340;2023-07-02T08:56:00;3.20;;;3.00;;
2061;SDS011;11070;51.336;12.340;2023-07-02T08:58:26;3.23;;;3.03;;
2061;SDS011;11070;51.336;12.340;2023-07-02T09:01:04;3.40;;;3.10;;
2061;SDS011;11070;51.336;12.340;2023-07-02T09:03:32;3.65;;;3.40;;
2061;SDS011;11070;51.336;12.340;2023-07-02T09:05:58;3.90;;;3.70;;
2061;SDS011;11070;51.336;12.340;2023-07-02T09:08:27;4.20;;;3.90;;
2061;SDS011;11070;51.336;12.340;2023-07-02T09:10:53;4.43;;;3.88;;
2061;SDS011;11070;51.336;12.340;2023-07-02T09:13:19;4.10;;;3.80;;
2061;SDS011;11070;51.336;12.340;2023-07-02T09:15:45;3.77;;;3.47;;
2061;SDS011;11070;51.336;12.340;2023-07-02T09:18:20;4.00;;;3.70;;
2061;SDS011;11070;51.336;12.340;2023-07-02T09:20:53;4.22;;;3.83;;
2061;SDS011;11070;51.336;12.340;2023-07-02T09:23:19;4.63;;;4.05;;
2061;SDS011;11070;51.336;12.340;2023-07-02T09:25:45;4.43;;;4.10;;
2061;SDS011;11070;51.336;12.340;2023-07-02T09:28:14;4.33;;;4.03;;
2061;SDS011;11070;51.336;12.340;2023-07-02T09:30:48;4.72;;;4.43;;
2061;SDS011;11070;51.336;12.340;2023-07-02T09:33:15;4.40;;;4.10;;
2061;SDS011;11070;51.336;12.340;2023-07-02T09:35:42;5.90;;;4.00;;
2061;SDS011;11070;51.336;12.340;2023-07-02T09:38:09;4.47;;;4.17;;
2061;SDS011;11070;51.336;12.340;2023-07-02T09:40:36;5.00;;;4.10;;
2061;SDS011;11070;51.336;12.340;2023-07-02T09:43:09;4.47;;;4.07;;
2061;SDS011;11070;51.336;12.340;2023-07-02T09:45:36;4.20;;;3.97;;
2061;SDS011;11070;51.336;12.340;2023-07-02T09:48:02;4.10;;;3.90;;
2061;SDS011;11070;51.336;12.340;2023-07-02T09:50:29;4.70;;;4.30;;
2061;SDS011;11070;51.336;12.340;2023-07-02T09:52:55;4.80;;;4.40;;
2061;SDS011;11070;51.336;12.340;2023-07-02T09:55:21;4.50;;;4.20;;
2061;SDS011;11070;51.336;12.340;2023-07-02T09:57:47;5.40;;;5.00;;
2061;SDS011;11070;51.336;12.340;2023-07-02T10:00:13;6.73;;;5.50;;
2061;SDS011;11070;51.336;12.340;2023-07-02T10:02:39;6.13;;;5.63;;
2061;SDS011;11070;51.336;12.340;2023-07-02T10:05:05;5.40;;;4.90;;
2061;SDS011;11070;51.336;12.340;2023-07-02T10:07:31;7.07;;;5.63;;
2061;SDS011;11070;51.336;12.340;2023-07-02T10:09:58;5.10;;;4.67;;
2061;SDS011;11070;51.336;12.340;2023-07-02T10:12:25;6.80;;;5.10;;
2061;SDS011;11070;51.336;12.340;2023-07-02T10:14:55;6.43;;;5.07;;
2061;SDS011;11070;51.336;12.340;2023-07-02T10:19:53;5.27;;;4.87;;
2061;SDS011;11070;51.336;12.340;2023-07-02T10:22:20;5.67;;;4.90;;
2061;SDS011;11070;51.336;12.340;2023-07-02T10:24:56;5.80;;;5.20;;
2061;SDS011;11070;51.336;12.340;2023-07-02T10:27:35;5.47;;;5.00;;
2061;SDS011;11070;51.336;12.340;2023-07-02T10:30:02;4.97;;;4.57;;
2061;SDS011;11070;51.336;12.340;2023-07-02T10:32:29;5.60;;;4.90;;
2061;SDS011;11070;51.336;12.340;2023-07-02T10:34:55;5.40;;;4.50;;
2061;SDS011;11070;51.336;12.340;2023-07-02T10:37:21;8.40;;;4.50;;
2061;SDS011;11070;51.336;12.340;2023-07-02T10:39:46;5.60;;;5.10;;
2061;SDS011;11070;51.336;12.340;2023-07-02T10:42:12;5.37;;;4.90;;
2061;SDS011;11070;51.336;12.340;2023-07-02T10:44:50;5.60;;;5.10;;
2061;SDS011;11070;51.336;12.340;2023-07-02T10:47:17;5.57;;;5.00;;
2061;SDS011;11070;51.336;12.340;2023-07-02T10:49:44;5.37;;;4.87;;
2061;SDS011;11070;51.336;12.340;2023-07-02T10:52:10;5.80;;;5.30;;
2061;SDS011;11070;51.336;12.340;2023-07-02T10:54:39;5.57;;;5.13;;
2061;SDS011;11070;51.336;12.340;2023-07-02T10:57:07;5.50;;;5.00;;
2061;SDS011;11070;51.336;12.340;2023-07-02T10:59:33;7.60;;;5.83;;
2061;SDS011;11070;51.336;12.340;2023-07-02T11:01:59;11.10;;;6.10;;
2061;SDS011;11070;51.336;12.340;2023-07-02T11:04:27;7.27;;;6.67;;
2061;SDS011;11070;51.336;12.340;2023-07-02T11:06:53;6.10;;;5.50;;
2061;SDS011;11070;51.336;12.340;2023-07-02T11:09:19;7.60;;;6.70;;
2061;SDS011;11070;51.336;12.340;2023-07-02T11:11:56;8.67;;;6.60;;
2061;SDS011;11070;51.336;12.340;2023-07-02T11:14:27;7.00;;;6.30;;
2061;SDS011;11070;51.336;12.340;2023-07-02T11:16:57;7.30;;;6.70;;
2061;SDS011;11070;51.336;12.340;2023-07-02T11:19:25;7.20;;;6.43;;
2061;SDS011;11070;51.336;12.340;2023-07-02T11:21:51;9.00;;;7.20;;
2061;SDS011;11070;51.336;12.340;2023-07-02T11:24:32;7.90;;;7.20;;
2061;SDS011;11070;51.336;12.340;2023-07-02T11:27:00;8.30;;;7.57;;
2061;SDS011;11070;51.336;12.340;2023-07-02T11:29:28;7.70;;;6.63;;
2061;SDS011;11070;51.336;12.340;2023-07-02T11:31:54;7.73;;;6.83;;
2061;SDS011;11070;51.336;12.340;2023-07-02T11:34:29;7.77;;;6.97;;
2061;SDS011;11070;51.336;12.340;2023-07-02T11:36:55;7.27;;;6.57;;
2061;SDS011;11070;51.336;12.340;2023-07-02T11:39:20;7.70;;;7.00;;
2061;SDS011;11070;51.336;12.340;2023-07-02T11:41:47;8.30;;;7.10;;
2061;SDS011;11070;51.336;12.340;2023-07-02T11:44:13;7.20;;;6.50;;
2061;SDS011;11070;51.336;12.340;2023-07-02T11:46:40;7.50;;;6.80;;
2061;SDS011;11070;51.336;12.340;2023-07-02T11:49:06;9.90;;;7.10;;
2061;SDS011;11070;51.336;12.340;2023-07-02T11:51:37;7.53;;;6.60;;
2061;SDS011;11070;51.336;12.340;2023-07-02T11:54:05;8.97;;;7.63;;
2061;SDS011;11070;51.336;12.340;2023-07-02T11:56:31;7.63;;;6.93;;
2061;SDS011;11070;51.336;12.340;2023-07-02T11:58:57;7.50;;;6.80;;
2061;SDS011;11070;51.336;12.340;2023-07-02T12:01:23;7.40;;;6.70;;
2061;SDS011;11070;51.336;12.340;2023-07-02T12:03:49;8.17;;;6.60;;
2061;SDS011;11070;51.336;12.340;2023-07-02T12:06:14;8.57;;;6.60;;
2061;SDS011;11070;51.336;12.340;2023-07-02T12:08:40;9.13;;;6.80;;
2061;SDS011;11070;51.336;12.340;2023-07-02T12:11:06;7.03;;;6.43;;
2061;SDS011;11070;51.336;12.340;2023-07-02T12:13:32;6.67;;;6.07;;
2061;SDS011;11070;51.336;12.340;2023-07-02T12:15:58;7.40;;;6.70;;
2061;SDS011;11070;51.336;12.340;2023-07-02T12:18:23;8.73;;;6.47;;
2061;SDS011;11070;51.336;12.340;2023-07-02T12:20:49;7.33;;;6.73;;
2061;SDS011;11070;51.336;12.340;2023-07-02T12:23:14;11.93;;;6.50;;
2061;SDS011;11070;51.336;12.340;2023-07-02T12:25:40;17.43;;;7.00;;
2061;SDS011;11070;51.336;12.340;2023-07-02T12:28:06;7.23;;;6.47;;
2061;SDS011;11070;51.336;12.340;2023-07-02T12:30:32;8.83;;;7.00;;
2061;SDS011;11070;51.336;12.340;2023-07-02T12:32:57;8.70;;;7.10;;
2061;SDS011;11070;51.336;12.340;2023-07-02T12:35:23;10.77;;;7.43;;
2061;SDS011;11070;51.336;12.340;2023-07-02T12:37:50;7.67;;;6.87;;
2061;SDS011;11070;51.336;12.340;2023-07-02T12:40:17;9.37;;;6.57;;
2061;SDS011;11070;51.336;12.340;2023-07-02T12:42:44;10.97;;;7.53;;
2061;SDS011;11070;51.336;12.340;2023-07-02T12:45:11;7.50;;;6.80;;
2061;SDS011;11070;51.336;12.340;2023-07-02T12:47:40;7.60;;;6.90;;
2061;SDS011;11070;51.336;12.340;2023-07-02T12:50:07;9.23;;;6.60;;
2061;SDS011;11070;51.336;12.340;2023-07-02T12:52:33;7.60;;;6.80;;
2061;SDS011;11070;51.336;12.340;2023-07-02T12:54:59;7.90;;;7.10;;
2061;SDS011;11070;51.336;12.340;2023-07-02T12:57:26;8.33;;;6.30;;
2061;SDS011;11070;51.336;12.340;2023-07-02T12:59:52;11.47;;;6.47;;
2061;SDS011;11070;51.336;12.340;2023-07-02T13:02:18;8.13;;;6.90;;
2061;SDS011;11070;51.336;12.340;2023-07-02T13:04:44;7.90;;;6.60;;
2061;SDS011;11070;51.336;12.340;2023-07-02T13:07:09;6.80;;;6.20;;
2061;SDS011;11070;51.336;12.340;2023-07-02T13:09:35;10.80;;;8.60;;
2061;SDS011;11070;51.336;12.340;2023-07-02T13:12:01;9.07;;;7.13;;
2061;SDS011;11070;51.336;12.340;2023-07-02T13:14:27;7.93;;;7.13;;
2061;SDS011;11070;51.336;12.340;2023-07-02T13:16:52;8.90;;;7.90;;
2061;SDS011;11070;51.336;12.340;2023-07-02T13:19:18;12.17;;;7.40;;
2061;SDS011;11070;51.336;12.340;2023-07-02T13:21:44;9.07;;;7.90;;
2061;SDS011;11070;51.336;12.340;2023-07-02T13:24:10;12.03;;;8.00;;
2061;SDS011;11070;51.336;12.340;2023-07-02T13:26:37;8.47;;;7.03;;
2061;SDS011;11070;51.336;12.340;2023-07-02T13:29:03;11.17;;;7.63;;
2061;SDS011;11070;51.336;12.340;2023-07-02T13:31:28;12.30;;;8.33;;
2061;SDS011;11070;51.336;12.340;2023-07-02T13:33:54;10.20;;;8.10;;
2061;SDS011;11070;51.336;12.340;2023-07-02T13:36:20;9.40;;;8.13;;
2061;SDS011;11070;51.336;12.340;2023-07-02T13:38:46;11.17;;;8.27;;
2061;SDS011;11070;51.336;12.340;2023-07-02T13:41:11;8.43;;;7.53;;
2061;SDS011;11070;51.336;12.340;2023-07-02T13:43:37;8.57;;;7.60;;
2061;SDS011;11070;51.336;12.340;2023-07-02T13:46:03;12.73;;;7.73;;
2061;SDS011;11070;51.336;12.340;2023-07-02T13:48:29;9.73;;;7.70;;
2061;SDS011;11070;51.336;12.340;2023-07-02T13:50:54;8.97;;;7.70;;
2061;SDS011;11070;51.336;12.340;2023-07-02T13:53:20;9.77;;;7.53;;
2061;SDS011;11070;51.336;12.340;2023-07-02T13:55:46;8.77;;;7.63;;
2061;SDS011;11070;51.336;12.340;2023-07-02T13:58:11;9.43;;;8.37;;
2061;SDS011;11070;51.336;12.340;2023-07-02T14:00:37;9.53;;;8.40;;
2061;SDS011;11070;51.336;12.340;2023-07-02T14:03:03;9.70;;;8.10;;
2061;SDS011;11070;51.336;12.340;2023-07-02T14:05:29;9.63;;;8.30;;
2061;SDS011;11070;51.336;12.340;2023-07-02T14:07:54;11.03;;;8.60;;
2061;SDS011;11070;51.336;12.340;2023-07-02T14:10:20;12.93;;;9.97;;
2061;SDS011;11070;51.336;12.340;2023-07-02T14:12:46;10.10;;;8.67;;
2061;SDS011;11070;51.336;12.340;2023-07-02T14:15:11;12.33;;;8.87;;
2061;SDS011;11070;51.336;12.340;2023-07-02T14:17:37;10.77;;;8.87;;
2061;SDS011;11070;51.336;12.340;2023-07-02T14:20:03;9.87;;;8.83;;
2061;SDS011;11070;51.336;12.340;2023-07-02T14:22:31;14.40;;;9.53;;
2061;SDS011;11070;51.336;12.340;2023-07-02T14:24:56;9.97;;;8.97;;
2061;SDS011;11070;51.336;12.340;2023-07-02T14:27:22;10.80;;;8.93;;
2061;SDS011;11070;51.336;12.340;2023-07-02T14:29:48;11.23;;;8.60;;
2061;SDS011;11070;51.336;12.340;2023-07-02T14:32:14;8.90;;;7.83;;
2061;SDS011;11070;51.336;12.340;2023-07-02T14:34:40;10.70;;;8.03;;
2061;SDS011;11070;51.336;12.340;2023-07-02T14:37:06;9.97;;;8.70;;
2061;SDS011;11070;51.336;12.340;2023-07-02T14:39:32;10.60;;;8.77;;
2061;SDS011;11070;51.336;12.340;2023-07-02T14:41:57;12.00;;;9.20;;
2061;SDS011;11070;51.336;12.340;2023-07-02T14:44:23;10.33;;;8.30;;
2061;SDS011;11070;51.336;12.340;2023-07-02T14:46:49;11.37;;;8.43;;
2061;SDS011;11070;51.336;12.340;2023-07-02T14:49:15;12.77;;;8.70;;